Metar Cercanos

 

LEPA - Palma De Mallorc, Spain
Distance from station: ONO 38km
Actualización: 19/11/2018 23:00
Few Clouds
Few Clouds
 Viento del N
Viento: N 6 km/h
Temperatura: 11°C
Rocío: 10°C
Humedad: 94%
Barómetro: 1000 hPa
Clouds: Few Clouds
Visibility: 10 km
Cloud details: Few Clouds 853 m
2018/11/19 22:00 LEPA 192200Z 36003KT 9999 FEW028 11/10 Q1000 NOSIG
LEMH - Mahon/Menorca Is, Spain
Distance from station: ENE 105km
Actualización: 19/11/2018 23:00
Lluvia débil, Muy nuboso
Lluvia débil, Muy nuboso
 Viento del N
Viento: N 13 km/h
Temperatura: 12°C
Rocío: 11°C
Humedad: 94%
Barómetro: 998 hPa
Resumen: Lluvia débil
Clouds: Muy nuboso
Visibility: 10 km
Cloud details: Parcialmente nuboso 884 m
Parcialmente nuboso 1158 m
Muy nuboso 1372 m
2018/11/19 22:00 LEMH 192200Z AUTO 01007KT 330V040 9999 -RA SCT029/// SCT038/// BKN045/// 12/11 Q0998
 
LEIB - Ibiza/Es Codola, Spain
Distance from station: OSO 165km
Actualización: 19/11/2018 23:00
Few Clouds
Few Clouds
 Viento del calm
Viento: Calma
Temperatura: 13°C
Rocío: 11°C
Humedad: 88%
Barómetro: 1001 hPa
Clouds: Few Clouds
Visibility: 10 km
Cloud details: Few Clouds 671 m
2018/11/19 22:00 LEIB 192200Z 00000KT 9999 FEW022 13/11 Q1001 NOSIG
LEBL - Barcelona Airpor, Spain
Distance from station: NNO 225km
Actualización: 19/11/2018 23:00
Muy nuboso
Muy nuboso
 Viento del NNO
Viento: NNO 11 km/h
Temperatura: 11°C
Rocío: 9°C
Humedad: 88%
Barómetro: 1001 hPa
Clouds: Muy nuboso
Visibility: 10 km
Cloud details: Few Clouds 914 m
Muy nuboso 1524 m
2018/11/19 22:00 LEBL 192200Z 34006KT 9999 FEW030 BKN050 11/09 Q1001 TEMPO 4000 SHRA FEW025TCU
 
LEVC - Valencia (civ/Mi, Spain
Distance from station: NO 188km
Actualización: 19/11/2018 23:00
Muy nuboso
Muy nuboso
 Viento del varies
Viento: varies 4 km/h
Temperatura: 13°C
Rocío: 12°C
Humedad: 94%
Barómetro: 1002 hPa
Clouds: Muy nuboso
Visibility: 10 km
Cloud details: Muy nuboso 1067 m
2018/11/19 22:00 LEVC 192200Z VRB02KT 9999 BKN035 13/12 Q1002 NOSIG
LEGE - Gerona/Costa Bra, Spain
Distance from station: N 276km
Actualización: 19/11/2018 23:00
Cubierto
Cubierto
 Viento del varies
Viento: varies 4 km/h
Temperatura: 9°C
Rocío: 9°C
Humedad: 100%
Barómetro: 1001 hPa
Clouds: Cubierto
Visibility: 10 km
Cloud details: Cubierto 1829 m
2018/11/19 22:00 LEGE 192200Z VRB02KT 9999 OVC060 09/09 Q1001
 
LEAL - Alicante/El Alte, Spain
Distance from station: OSO 344km
Actualización: 19/11/2018 23:00
Muy nuboso
Muy nuboso
 Viento del OSO
Viento: OSO 9 km/h
Temperatura: 14°C
Rocío: 11°C
Humedad: 82%
Barómetro: 1002 hPa
Clouds: Muy nuboso
Visibility: 10 km
Cloud details: Few Clouds 610 m
Muy nuboso 1920 m
2018/11/19 22:00 LEAL 192200Z 25005KT 9999 FEW020 BKN063 14/11 Q1002 NOSIG
LEAM - Almeria Airport, Spain
Distance from station: SSO 56km
Actualización: 19/11/2018 23:00

 Viento del O
Viento: O 7 km/h
Temperatura: 16°C
Rocío: 12°C
Humedad: 77%
Barómetro: 1003 hPa
Visibility: 10 km
2018/11/19 22:00 LEAM 192200Z AUTO 26004KT 220V320 9999 ////// 16/12 Q1003
 
LEZG - Zaragoza (mil/Ci, Spain
Distance from station: NO 431km
Actualización: 19/11/2018 23:00
Parcialmente nuboso
Parcialmente nuboso
 Viento del O
Viento: O 13 km/h
Temperatura: 11°C
Rocío: 8°C
Humedad: 82%
Barómetro: 1000 hPa
Clouds: Parcialmente nuboso
Visibility: 10 km
Cloud details: Few Clouds 1372 m
Parcialmente nuboso 2438 m
2018/11/19 22:00 LEZG 192200Z 27007KT 9999 FEW045 SCT080 11/08 Q1000
LEMD - Madrid/Barajas, Spain
Distance from station: ONO 234km
Actualización: 19/11/2018 23:00
Lluvia débil, Muy nuboso
Lluvia débil, Muy nuboso
 Viento del varies
Viento: varies 4 km/h
Temperatura: 11°C
Rocío: 10°C
Humedad: 94%
Barómetro: 1002 hPa
Resumen: Lluvia débil
Clouds: Muy nuboso
Visibility: 10 km
Cloud details: Muy nuboso 1463 m
Muy nuboso 1829 m
2018/11/19 22:00 LEMD 192200Z VRB02KT 9999 -RA BKN048 BKN060 11/10 Q1002 R88/29//95 NOSIG
 
LEGR - Granada Airport, Spain
Distance from station: OSO 62km
Actualización: 19/11/2018 23:00
Lluvia, Muy nuboso
Lluvia, Muy nuboso
 Viento del varies
Viento: varies 4 km/h
Temperatura: 10°C
Rocío: 10°C
Humedad: 100%
Barómetro: 1006 hPa
Resumen: Lluvia
Clouds: Muy nuboso
Visibility: 5 km
Cloud details: Parcialmente nuboso 457 m
Muy nuboso 1219 m
2018/11/19 22:00 LEGR 192200Z VRB02KT 5000 RA SCT015 BKN040 10/10 Q1006
LEMG - Malaga (civ/Mil), Spain
Distance from station: OSO 227km
Actualización: 19/11/2018 23:00
Parcialmente nuboso
Parcialmente nuboso
 Viento del varies
Viento: varies 2 km/h
Temperatura: 12°C
Rocío: 9°C
Humedad: 82%
Barómetro: 1006 hPa
Clouds: Parcialmente nuboso
Visibility: 10 km
Cloud details: Few Clouds 549 m
Parcialmente nuboso 2134 m
2018/11/19 22:00 LEMG 192200Z VRB01KT 9999 FEW018 SCT070 12/09 Q1006 NOSIG
 
LEZL - Sevilla (civ/Mil, Spain
Distance from station: S 318km
Actualización: 19/11/2018 23:00
Despejado
Despejado
 Viento del S
Viento: S 9 km/h
Temperatura: 13°C
Rocío: 11°C
Humedad: 88%
Barómetro: 1005 hPa
Resumen: Despejado
Visibility: greater than 10 km
2018/11/19 22:00 LEZL 192200Z 18005KT CAVOK 13/11 Q1005 NOSIG
LEVT - Vitoria, Spain
Distance from station: NO 226km
Actualización: 19/11/2018 23:00
Muy nuboso
Muy nuboso
 Viento del ENE
Viento: ENE 7 km/h
Temperatura: 7°C
Sensación frio: 6°C
Rocío: 6°C
Humedad: 93%
Barómetro: 1001 hPa
Clouds: Muy nuboso
Visibility: 10 km
Cloud details: Parcialmente nuboso 457 m
Muy nuboso 762 m
2018/11/19 22:00 LEVT 192200Z 06004KT 9999 SCT015 BKN025 07/06 Q1001
 
LEBB - Bilbao/Sondica, Spain
Distance from station: NNO 235km
Actualización: 19/11/2018 23:00
Muy nuboso
Muy nuboso
 Viento del varies
Viento: varies 4 km/h
Temperatura: 9°C
Rocío: 8°C
Humedad: 94%
Barómetro: 1002 hPa
Clouds: Muy nuboso
Visibility: 10 km
Cloud details: Parcialmente nuboso 762 m
Muy nuboso 1067 m
2018/11/19 22:00 LEBB 192200Z VRB02KT 9999 SCT025 BKN035 09/08 Q1002 NOSIG
LESO - San Sebastian/Fu, Spain
Distance from station: N 231km
Actualización: 19/11/2018 23:00
Muy nuboso
Muy nuboso
 Viento del OSO
Viento: OSO 7 km/h
Temperatura: 9°C
Sensación frio: 8°C
Rocío: 7°C
Humedad: 87%
Barómetro: 1002 hPa
Clouds: Muy nuboso
Visibility: 10 km
Cloud details: Muy nuboso 732 m
Muy nuboso 1341 m
Muy nuboso 1524 m
2018/11/19 22:00 LESO 192200Z AUTO 24004KT 200V290 9999 BKN024/// BKN044/// BKN050/// 09/07 Q1002
 
LEVD - Valladolid(Mil/C, Spain
Distance from station: ONO 239km
Actualización: 19/11/2018 21:30
NOT Current
Cubierto
Cubierto
 Viento del OSO
Viento: OSO 7 km/h
Temperatura: 8°C
Sensación frio: 7°C
Rocío: 6°C
Humedad: 87%
Barómetro: 1002 hPa
Clouds: Cubierto
Visibility: 10 km
Cloud details: Cubierto 1189 m
2018/11/19 20:30 LEVD 192030Z 24004KT 9999 OVC039 08/06 Q1002
LESA - Salamanca (civ/M, Spain
Distance from station: ONO 349km
Actualización: 19/11/2018 23:00
Parcialmente nuboso
Parcialmente nuboso
 Viento del O
Viento: O 7 km/h
Temperatura: 8°C
Sensación frio: 7°C
Rocío: 7°C
Humedad: 93%
Barómetro: 1002 hPa
Clouds: Parcialmente nuboso
Visibility: 9 km
2018/11/19 22:00 LESA 192200Z AUTO 27004KT 9000 NSC 08/07 Q1002
 
LEXJ - Santander/Paraya, Spain
Distance from station: NNO 247km
Actualización: 19/11/2018 23:00
Muy nuboso
Muy nuboso
 Viento del NE
Viento: NE 9 km/h
Temperatura: 12°C
Rocío: 8°C
Humedad: 77%
Barómetro: 1003 hPa
Clouds: Muy nuboso
Visibility: 10 km
Cloud details: Muy nuboso 732 m
Muy nuboso 914 m
2018/11/19 22:00 LEXJ 192200Z 05005KT 010V080 9999 BKN024 BKN030 12/08 Q1003
LEAS - Asturias/Aviles, Spain
Distance from station: NO 214km
Actualización: 19/11/2018 23:00
Muy nuboso
Muy nuboso
 Viento del E
Viento: E 13 km/h
Temperatura: 12°C
Rocío: 9°C
Humedad: 82%
Barómetro: 1003 hPa
Clouds: Muy nuboso
Visibility: 10 km
Cloud details: Parcialmente nuboso 457 m
Muy nuboso 914 m
2018/11/19 22:00 LEAS 192200Z 08007KT 050V110 9999 SCT015 BKN030 12/09 Q1003 NOSIG
 
LECO - La Coruna/Alvedr, Spain
Distance from station: ONO 222km
Actualización: 19/11/2018 23:00
Few Clouds
Few Clouds
 Viento del S
Viento: S 4 km/h
Temperatura: 12°C
Rocío: 11°C
Humedad: 94%
Barómetro: 1002 hPa
Clouds: Few Clouds
Visibility: 10 km
Cloud details: Few Clouds 914 m
2018/11/19 22:00 LECO 192200Z 17002KT 9999 FEW030 12/11 Q1002 NOSIG
LEVX - Vigo/Peinador, Spain
Distance from station: O 214km
Actualización: 19/11/2018 23:00
Patches of fog, Parcialmente nuboso
Patches of fog, Parcialmente nuboso
 Viento del varies
Viento: varies 4 km/h
Temperatura: 12°C
Rocío: 11°C
Humedad: 94%
Barómetro: 1002 hPa
Resumen: Patches of Fog
Clouds: Parcialmente nuboso
Visibility: 3 km
Cloud details: Few Clouds 61 m
Parcialmente nuboso 610 m
2018/11/19 22:00 LEVX 192200Z VRB02KT 3000 BCFG FEW002 SCT020 12/11 Q1002 TEMPO 0800 RA BKN005